sensor_id;sensor_type;location;lat;lon;timestamp;P1;durP1;ratioP1;P2;durP2;ratioP2
16254;SDS011;8235;52.198;9.904;2023-11-21T00:01:55;21.10;;;10.63;;
16254;SDS011;8235;52.198;9.904;2023-11-21T00:04:22;18.50;;;10.47;;
16254;SDS011;8235;52.198;9.904;2023-11-21T00:06:50;18.80;;;10.50;;
16254;SDS011;8235;52.198;9.904;2023-11-21T00:09:16;21.07;;;11.53;;
16254;SDS011;8235;52.198;9.904;2023-11-21T00:11:43;23.40;;;11.00;;
16254;SDS011;8235;52.198;9.904;2023-11-21T00:14:10;23.27;;;10.60;;
16254;SDS011;8235;52.198;9.904;2023-11-21T00:16:37;21.33;;;11.20;;
16254;SDS011;8235;52.198;9.904;2023-11-21T00:19:04;21.13;;;11.60;;
16254;SDS011;8235;52.198;9.904;2023-11-21T00:21:31;19.73;;;10.73;;
16254;SDS011;8235;52.198;9.904;2023-11-21T00:23:59;17.37;;;10.70;;
16254;SDS011;8235;52.198;9.904;2023-11-21T00:26:25;23.47;;;11.67;;
16254;SDS011;8235;52.198;9.904;2023-11-21T00:28:51;19.77;;;12.30;;
16254;SDS011;8235;52.198;9.904;2023-11-21T00:31:18;23.07;;;12.43;;
16254;SDS011;8235;52.198;9.904;2023-11-21T00:33:45;22.17;;;11.67;;
16254;SDS011;8235;52.198;9.904;2023-11-21T00:36:11;25.30;;;12.93;;
16254;SDS011;8235;52.198;9.904;2023-11-21T00:38:38;18.90;;;11.40;;
16254;SDS011;8235;52.198;9.904;2023-11-21T00:41:06;21.60;;;11.40;;
16254;SDS011;8235;52.198;9.904;2023-11-21T00:43:32;19.30;;;11.17;;
16254;SDS011;8235;52.198;9.904;2023-11-21T00:45:59;27.07;;;12.37;;
16254;SDS011;8235;52.198;9.904;2023-11-21T00:48:25;19.57;;;12.83;;
16254;SDS011;8235;52.198;9.904;2023-11-21T00:50:52;19.33;;;10.97;;
16254;SDS011;8235;52.198;9.904;2023-11-21T00:53:18;23.13;;;12.53;;
16254;SDS011;8235;52.198;9.904;2023-11-21T00:55:45;21.50;;;11.97;;
16254;SDS011;8235;52.198;9.904;2023-11-21T00:58:13;22.77;;;11.83;;
16254;SDS011;8235;52.198;9.904;2023-11-21T01:00:39;16.13;;;11.20;;
16254;SDS011;8235;52.198;9.904;2023-11-21T01:03:06;24.20;;;12.27;;
16254;SDS011;8235;52.198;9.904;2023-11-21T01:05:33;23.83;;;12.23;;
16254;SDS011;8235;52.198;9.904;2023-11-21T01:07:59;25.77;;;12.33;;
16254;SDS011;8235;52.198;9.904;2023-11-21T01:10:26;22.50;;;12.70;;
16254;SDS011;8235;52.198;9.904;2023-11-21T01:12:52;24.80;;;11.73;;
16254;SDS011;8235;52.198;9.904;2023-11-21T01:15:20;23.47;;;11.70;;
16254;SDS011;8235;52.198;9.904;2023-11-21T01:17:47;23.53;;;12.70;;
16254;SDS011;8235;52.198;9.904;2023-11-21T01:20:13;21.60;;;12.27;;
16254;SDS011;8235;52.198;9.904;2023-11-21T01:22:40;25.60;;;12.30;;
16254;SDS011;8235;52.198;9.904;2023-11-21T01:25:07;25.33;;;12.70;;
16254;SDS011;8235;52.198;9.904;2023-11-21T01:27:33;25.37;;;12.47;;
16254;SDS011;8235;52.198;9.904;2023-11-21T01:30:01;26.90;;;12.83;;
16254;SDS011;8235;52.198;9.904;2023-11-21T01:32:29;23.03;;;12.37;;
16254;SDS011;8235;52.198;9.904;2023-11-21T01:34:55;21.87;;;12.63;;
16254;SDS011;8235;52.198;9.904;2023-11-21T01:37:22;25.27;;;12.90;;
16254;SDS011;8235;52.198;9.904;2023-11-21T01:39:49;23.10;;;12.43;;
16254;SDS011;8235;52.198;9.904;2023-11-21T01:42:15;26.83;;;12.63;;
16254;SDS011;8235;52.198;9.904;2023-11-21T01:44:43;27.70;;;12.13;;
16254;SDS011;8235;52.198;9.904;2023-11-21T01:47:10;22.30;;;13.43;;
16254;SDS011;8235;52.198;9.904;2023-11-21T01:49:38;25.77;;;11.73;;
16254;SDS011;8235;52.198;9.904;2023-11-21T01:52:05;27.70;;;12.47;;
16254;SDS011;8235;52.198;9.904;2023-11-21T01:54:33;25.80;;;12.70;;
16254;SDS011;8235;52.198;9.904;2023-11-21T01:57:01;23.20;;;12.63;;
16254;SDS011;8235;52.198;9.904;2023-11-21T01:59:33;24.57;;;12.97;;
16254;SDS011;8235;52.198;9.904;2023-11-21T02:02:01;32.17;;;13.30;;
16254;SDS011;8235;52.198;9.904;2023-11-21T02:04:30;27.33;;;13.33;;
16254;SDS011;8235;52.198;9.904;2023-11-21T02:06:58;27.17;;;13.53;;
16254;SDS011;8235;52.198;9.904;2023-11-21T02:09:25;28.30;;;13.07;;
16254;SDS011;8235;52.198;9.904;2023-11-21T02:11:52;24.73;;;13.00;;
16254;SDS011;8235;52.198;9.904;2023-11-21T02:14:19;26.80;;;13.70;;
16254;SDS011;8235;52.198;9.904;2023-11-21T02:16:47;22.00;;;11.97;;
16254;SDS011;8235;52.198;9.904;2023-11-21T02:19:15;30.13;;;15.00;;
16254;SDS011;8235;52.198;9.904;2023-11-21T02:21:45;26.83;;;13.93;;
16254;SDS011;8235;52.198;9.904;2023-11-21T02:24:14;23.47;;;13.20;;
16254;SDS011;8235;52.198;9.904;2023-11-21T02:26:42;22.93;;;13.37;;
16254;SDS011;8235;52.198;9.904;2023-11-21T02:29:09;25.73;;;14.57;;
16254;SDS011;8235;52.198;9.904;2023-11-21T02:31:38;32.47;;;13.87;;
16254;SDS011;8235;52.198;9.904;2023-11-21T02:34:12;24.70;;;13.10;;
16254;SDS011;8235;52.198;9.904;2023-11-21T02:36:39;24.97;;;14.80;;
16254;SDS011;8235;52.198;9.904;2023-11-21T02:39:07;31.00;;;14.80;;
16254;SDS011;8235;52.198;9.904;2023-11-21T02:41:35;24.83;;;14.37;;
16254;SDS011;8235;52.198;9.904;2023-11-21T02:44:02;30.77;;;13.73;;
16254;SDS011;8235;52.198;9.904;2023-11-21T02:46:31;27.27;;;14.00;;
16254;SDS011;8235;52.198;9.904;2023-11-21T02:48:58;26.00;;;13.33;;
16254;SDS011;8235;52.198;9.904;2023-11-21T02:51:25;30.10;;;14.60;;
16254;SDS011;8235;52.198;9.904;2023-11-21T02:53:52;26.60;;;13.47;;
16254;SDS011;8235;52.198;9.904;2023-11-21T02:56:18;31.17;;;13.97;;
16254;SDS011;8235;52.198;9.904;2023-11-21T02:58:46;26.23;;;14.57;;
16254;SDS011;8235;52.198;9.904;2023-11-21T03:01:12;28.10;;;13.90;;
16254;SDS011;8235;52.198;9.904;2023-11-21T03:03:39;28.90;;;13.60;;
16254;SDS011;8235;52.198;9.904;2023-11-21T03:06:07;27.20;;;15.00;;
16254;SDS011;8235;52.198;9.904;2023-11-21T03:08:33;28.90;;;15.10;;
16254;SDS011;8235;52.198;9.904;2023-11-21T03:11:00;30.03;;;14.37;;
16254;SDS011;8235;52.198;9.904;2023-11-21T03:13:27;29.57;;;15.33;;
16254;SDS011;8235;52.198;9.904;2023-11-21T03:15:55;31.63;;;15.00;;
16254;SDS011;8235;52.198;9.904;2023-11-21T03:18:22;38.33;;;15.23;;
16254;SDS011;8235;52.198;9.904;2023-11-21T03:20:48;30.87;;;14.70;;
16254;SDS011;8235;52.198;9.904;2023-11-21T03:23:14;38.67;;;16.93;;
16254;SDS011;8235;52.198;9.904;2023-11-21T03:25:41;33.00;;;15.80;;
16254;SDS011;8235;52.198;9.904;2023-11-21T03:28:08;30.27;;;15.33;;
16254;SDS011;8235;52.198;9.904;2023-11-21T03:30:34;31.87;;;15.80;;
16254;SDS011;8235;52.198;9.904;2023-11-21T03:33:03;34.63;;;16.63;;
16254;SDS011;8235;52.198;9.904;2023-11-21T03:35:30;35.37;;;15.83;;
16254;SDS011;8235;52.198;9.904;2023-11-21T03:37:57;35.77;;;17.07;;
16254;SDS011;8235;52.198;9.904;2023-11-21T03:40:24;33.87;;;16.97;;
16254;SDS011;8235;52.198;9.904;2023-11-21T03:42:50;36.50;;;17.13;;
16254;SDS011;8235;52.198;9.904;2023-11-21T03:45:17;44.53;;;17.33;;
16254;SDS011;8235;52.198;9.904;2023-11-21T03:47:43;35.50;;;16.53;;
16254;SDS011;8235;52.198;9.904;2023-11-21T03:50:11;29.70;;;15.27;;
16254;SDS011;8235;52.198;9.904;2023-11-21T03:52:38;34.00;;;18.40;;
16254;SDS011;8235;52.198;9.904;2023-11-21T03:55:04;37.97;;;16.93;;
16254;SDS011;8235;52.198;9.904;2023-11-21T03:57:31;33.37;;;16.80;;
16254;SDS011;8235;52.198;9.904;2023-11-21T03:59:57;42.60;;;17.77;;
16254;SDS011;8235;52.198;9.904;2023-11-21T04:02:24;38.40;;;16.47;;
16254;SDS011;8235;52.198;9.904;2023-11-21T04:04:51;42.93;;;17.53;;
16254;SDS011;8235;52.198;9.904;2023-11-21T04:07:19;41.17;;;18.40;;
16254;SDS011;8235;52.198;9.904;2023-11-21T04:09:47;29.63;;;16.07;;
16254;SDS011;8235;52.198;9.904;2023-11-21T04:12:13;33.37;;;16.27;;
16254;SDS011;8235;52.198;9.904;2023-11-21T04:14:57;37.20;;;16.90;;
16254;SDS011;8235;52.198;9.904;2023-11-21T04:17:29;43.07;;;16.93;;
16254;SDS011;8235;52.198;9.904;2023-11-21T04:19:56;45.57;;;17.37;;
16254;SDS011;8235;52.198;9.904;2023-11-21T04:22:24;38.33;;;16.83;;
16254;SDS011;8235;52.198;9.904;2023-11-21T04:24:50;38.93;;;17.43;;
16254;SDS011;8235;52.198;9.904;2023-11-21T04:27:17;31.97;;;17.27;;
16254;SDS011;8235;52.198;9.904;2023-11-21T04:29:43;34.13;;;16.27;;
16254;SDS011;8235;52.198;9.904;2023-11-21T04:32:10;36.33;;;16.17;;
16254;SDS011;8235;52.198;9.904;2023-11-21T04:34:37;35.33;;;17.30;;
16254;SDS011;8235;52.198;9.904;2023-11-21T04:37:04;34.17;;;16.60;;
16254;SDS011;8235;52.198;9.904;2023-11-21T04:39:32;32.93;;;16.87;;
16254;SDS011;8235;52.198;9.904;2023-11-21T04:41:59;33.93;;;16.63;;
16254;SDS011;8235;52.198;9.904;2023-11-21T04:44:25;36.27;;;16.97;;
16254;SDS011;8235;52.198;9.904;2023-11-21T04:46:52;36.40;;;17.63;;
16254;SDS011;8235;52.198;9.904;2023-11-21T04:49:18;41.33;;;17.03;;
16254;SDS011;8235;52.198;9.904;2023-11-21T04:51:45;45.00;;;16.43;;
16254;SDS011;8235;52.198;9.904;2023-11-21T04:54:11;37.07;;;17.33;;
16254;SDS011;8235;52.198;9.904;2023-11-21T04:56:39;39.83;;;17.63;;
16254;SDS011;8235;52.198;9.904;2023-11-21T04:59:07;45.37;;;18.20;;
16254;SDS011;8235;52.198;9.904;2023-11-21T05:01:34;36.40;;;17.77;;
16254;SDS011;8235;52.198;9.904;2023-11-21T05:04:01;36.20;;;16.90;;
16254;SDS011;8235;52.198;9.904;2023-11-21T05:06:28;44.90;;;17.63;;
16254;SDS011;8235;52.198;9.904;2023-11-21T05:08:54;38.53;;;17.43;;
16254;SDS011;8235;52.198;9.904;2023-11-21T05:11:24;42.33;;;17.97;;
16254;SDS011;8235;52.198;9.904;2023-11-21T05:13:52;38.80;;;18.07;;
16254;SDS011;8235;52.198;9.904;2023-11-21T05:16:20;34.33;;;17.10;;
16254;SDS011;8235;52.198;9.904;2023-11-21T05:18:47;41.10;;;18.53;;
16254;SDS011;8235;52.198;9.904;2023-11-21T05:21:15;42.27;;;18.10;;
16254;SDS011;8235;52.198;9.904;2023-11-21T05:23:42;41.10;;;17.23;;
16254;SDS011;8235;52.198;9.904;2023-11-21T05:26:08;37.83;;;17.73;;
16254;SDS011;8235;52.198;9.904;2023-11-21T05:28:34;41.03;;;17.07;;
16254;SDS011;8235;52.198;9.904;2023-11-21T05:31:03;44.00;;;18.57;;
16254;SDS011;8235;52.198;9.904;2023-11-21T05:33:29;37.90;;;19.47;;
16254;SDS011;8235;52.198;9.904;2023-11-21T05:35:58;46.33;;;17.67;;
16254;SDS011;8235;52.198;9.904;2023-11-21T05:38:24;42.00;;;18.60;;
16254;SDS011;8235;52.198;9.904;2023-11-21T05:40:51;47.37;;;19.20;;
16254;SDS011;8235;52.198;9.904;2023-11-21T05:43:17;39.40;;;20.00;;
16254;SDS011;8235;52.198;9.904;2023-11-21T05:45:44;36.33;;;17.53;;
16254;SDS011;8235;52.198;9.904;2023-11-21T05:48:11;40.37;;;17.97;;
16254;SDS011;8235;52.198;9.904;2023-11-21T05:50:38;42.13;;;19.10;;
16254;SDS011;8235;52.198;9.904;2023-11-21T05:53:04;44.70;;;18.13;;
16254;SDS011;8235;52.198;9.904;2023-11-21T05:55:31;40.97;;;17.47;;
16254;SDS011;8235;52.198;9.904;2023-11-21T05:57:56;48.67;;;20.13;;
16254;SDS011;8235;52.198;9.904;2023-11-21T06:00:23;53.90;;;20.40;;
16254;SDS011;8235;52.198;9.904;2023-11-21T06:02:50;44.27;;;19.00;;
16254;SDS011;8235;52.198;9.904;2023-11-21T06:05:20;51.87;;;20.80;;
16254;SDS011;8235;52.198;9.904;2023-11-21T06:07:48;51.67;;;20.30;;
16254;SDS011;8235;52.198;9.904;2023-11-21T06:10:14;43.83;;;19.30;;
16254;SDS011;8235;52.198;9.904;2023-11-21T06:12:43;56.23;;;21.17;;
16254;SDS011;8235;52.198;9.904;2023-11-21T06:15:10;52.30;;;20.83;;
16254;SDS011;8235;52.198;9.904;2023-11-21T06:17:38;47.33;;;19.67;;
16254;SDS011;8235;52.198;9.904;2023-11-21T06:20:06;51.37;;;19.93;;
16254;SDS011;8235;52.198;9.904;2023-11-21T06:22:36;49.47;;;20.60;;
16254;SDS011;8235;52.198;9.904;2023-11-21T06:25:03;51.50;;;20.10;;
16254;SDS011;8235;52.198;9.904;2023-11-21T06:27:31;52.50;;;20.33;;
16254;SDS011;8235;52.198;9.904;2023-11-21T06:29:58;48.57;;;19.97;;
16254;SDS011;8235;52.198;9.904;2023-11-21T06:32:24;46.50;;;19.27;;
16254;SDS011;8235;52.198;9.904;2023-11-21T06:34:51;47.33;;;20.10;;
16254;SDS011;8235;52.198;9.904;2023-11-21T06:37:19;46.50;;;19.10;;
16254;SDS011;8235;52.198;9.904;2023-11-21T06:39:47;41.53;;;20.03;;
16254;SDS011;8235;52.198;9.904;2023-11-21T06:42:14;45.33;;;19.40;;
16254;SDS011;8235;52.198;9.904;2023-11-21T06:44:40;52.37;;;19.83;;
16254;SDS011;8235;52.198;9.904;2023-11-21T06:47:07;47.43;;;19.23;;
16254;SDS011;8235;52.198;9.904;2023-11-21T06:49:34;45.70;;;19.17;;
16254;SDS011;8235;52.198;9.904;2023-11-21T06:52:01;48.30;;;19.90;;
16254;SDS011;8235;52.198;9.904;2023-11-21T06:54:28;42.53;;;19.10;;
16254;SDS011;8235;52.198;9.904;2023-11-21T06:56:56;43.07;;;18.53;;
16254;SDS011;8235;52.198;9.904;2023-11-21T06:59:23;44.83;;;18.60;;
16254;SDS011;8235;52.198;9.904;2023-11-21T07:01:49;44.87;;;19.93;;
16254;SDS011;8235;52.198;9.904;2023-11-21T07:04:16;45.23;;;19.93;;
16254;SDS011;8235;52.198;9.904;2023-11-21T07:06:43;43.30;;;18.53;;
16254;SDS011;8235;52.198;9.904;2023-11-21T07:09:09;39.13;;;17.80;;
16254;SDS011;8235;52.198;9.904;2023-11-21T07:11:36;43.10;;;18.77;;
16254;SDS011;8235;52.198;9.904;2023-11-21T07:14:04;37.73;;;18.27;;
16254;SDS011;8235;52.198;9.904;2023-11-21T07:16:32;45.53;;;17.87;;
16254;SDS011;8235;52.198;9.904;2023-11-21T07:18:59;42.20;;;18.63;;
16254;SDS011;8235;52.198;9.904;2023-11-21T07:21:26;42.57;;;18.23;;
16254;SDS011;8235;52.198;9.904;2023-11-21T07:23:52;41.10;;;17.83;;
16254;SDS011;8235;52.198;9.904;2023-11-21T07:26:19;39.73;;;18.13;;
16254;SDS011;8235;52.198;9.904;2023-11-21T07:28:46;40.83;;;16.87;;
16254;SDS011;8235;52.198;9.904;2023-11-21T07:31:14;25.73;;;11.87;;
16254;SDS011;8235;52.198;9.904;2023-11-21T07:33:40;8.97;;;4.80;;
16254;SDS011;8235;52.198;9.904;2023-11-21T07:36:07;3.57;;;2.60;;
16254;SDS011;8235;52.198;9.904;2023-11-21T07:38:35;3.67;;;2.70;;
16254;SDS011;8235;52.198;9.904;2023-11-21T07:41:01;3.80;;;2.90;;
16254;SDS011;8235;52.198;9.904;2023-11-21T07:43:28;4.47;;;2.93;;
16254;SDS011;8235;52.198;9.904;2023-11-21T07:45:59;4.03;;;3.23;;
16254;SDS011;8235;52.198;9.904;2023-11-21T07:48:29;4.07;;;2.97;;
16254;SDS011;8235;52.198;9.904;2023-11-21T07:50:55;4.70;;;3.40;;
16254;SDS011;8235;52.198;9.904;2023-11-21T07:53:22;5.30;;;3.40;;
16254;SDS011;8235;52.198;9.904;2023-11-21T07:55:48;4.97;;;3.23;;
16254;SDS011;8235;52.198;9.904;2023-11-21T07:58:15;5.67;;;3.70;;
16254;SDS011;8235;52.198;9.904;2023-11-21T08:00:41;5.60;;;3.63;;
16254;SDS011;8235;52.198;9.904;2023-11-21T08:03:07;4.43;;;3.10;;
16254;SDS011;8235;52.198;9.904;2023-11-21T08:05:35;4.53;;;2.93;;
16254;SDS011;8235;52.198;9.904;2023-11-21T08:08:02;3.83;;;3.00;;
16254;SDS011;8235;52.198;9.904;2023-11-21T08:10:28;4.97;;;3.63;;
16254;SDS011;8235;52.198;9.904;2023-11-21T08:12:55;5.50;;;3.70;;
16254;SDS011;8235;52.198;9.904;2023-11-21T08:15:21;6.20;;;4.40;;
16254;SDS011;8235;52.198;9.904;2023-11-21T08:17:48;5.37;;;4.13;;
16254;SDS011;8235;52.198;9.904;2023-11-21T08:20:14;6.63;;;4.07;;
16254;SDS011;8235;52.198;9.904;2023-11-21T08:22:44;6.93;;;4.23;;
16254;SDS011;8235;52.198;9.904;2023-11-21T08:25:12;6.97;;;4.63;;
16254;SDS011;8235;52.198;9.904;2023-11-21T08:27:39;4.60;;;3.67;;
16254;SDS011;8235;52.198;9.904;2023-11-21T08:30:06;6.73;;;4.70;;
16254;SDS011;8235;52.198;9.904;2023-11-21T08:32:33;6.33;;;4.43;;
16254;SDS011;8235;52.198;9.904;2023-11-21T08:35:00;7.97;;;4.03;;
16254;SDS011;8235;52.198;9.904;2023-11-21T08:37:27;8.00;;;4.53;;
16254;SDS011;8235;52.198;9.904;2023-11-21T08:39:57;9.30;;;5.63;;
16254;SDS011;8235;52.198;9.904;2023-11-21T08:42:24;6.90;;;5.40;;
16254;SDS011;8235;52.198;9.904;2023-11-21T08:44:54;7.13;;;4.90;;
16254;SDS011;8235;52.198;9.904;2023-11-21T08:47:22;8.77;;;5.60;;
16254;SDS011;8235;52.198;9.904;2023-11-21T08:49:49;12.03;;;7.50;;
16254;SDS011;8235;52.198;9.904;2023-11-21T08:52:18;12.57;;;9.07;;
16254;SDS011;8235;52.198;9.904;2023-11-21T08:54:46;15.73;;;10.07;;
16254;SDS011;8235;52.198;9.904;2023-11-21T08:57:14;14.47;;;9.87;;
16254;SDS011;8235;52.198;9.904;2023-11-21T08:59:40;13.93;;;9.47;;
16254;SDS011;8235;52.198;9.904;2023-11-21T09:02:07;14.53;;;9.00;;
16254;SDS011;8235;52.198;9.904;2023-11-21T09:04:33;13.90;;;9.23;;
16254;SDS011;8235;52.198;9.904;2023-11-21T09:07:00;12.77;;;8.60;;
16254;SDS011;8235;52.198;9.904;2023-11-21T09:09:26;14.70;;;9.90;;
16254;SDS011;8235;52.198;9.904;2023-11-21T09:11:52;18.63;;;10.33;;
16254;SDS011;8235;52.198;9.904;2023-11-21T09:14:20;12.30;;;9.00;;
16254;SDS011;8235;52.198;9.904;2023-11-21T09:16:47;13.43;;;8.40;;
16254;SDS011;8235;52.198;9.904;2023-11-21T09:19:14;13.23;;;8.73;;
16254;SDS011;8235;52.198;9.904;2023-11-21T09:21:40;12.33;;;7.53;;
16254;SDS011;8235;52.198;9.904;2023-11-21T09:24:07;15.17;;;9.53;;
16254;SDS011;8235;52.198;9.904;2023-11-21T09:26:34;14.53;;;9.07;;
16254;SDS011;8235;52.198;9.904;2023-11-21T09:29:01;17.00;;;10.63;;
16254;SDS011;8235;52.198;9.904;2023-11-21T09:31:29;18.27;;;10.47;;
16254;SDS011;8235;52.198;9.904;2023-11-21T09:33:56;17.07;;;10.33;;
16254;SDS011;8235;52.198;9.904;2023-11-21T09:36:22;15.27;;;10.73;;
16254;SDS011;8235;52.198;9.904;2023-11-21T09:38:52;16.27;;;10.00;;
16254;SDS011;8235;52.198;9.904;2023-11-21T09:41:21;15.93;;;9.90;;
16254;SDS011;8235;52.198;9.904;2023-11-21T09:43:51;14.47;;;9.33;;
16254;SDS011;8235;52.198;9.904;2023-11-21T09:46:24;14.70;;;9.63;;
16254;SDS011;8235;52.198;9.904;2023-11-21T09:48:56;16.37;;;10.30;;
16254;SDS011;8235;52.198;9.904;2023-11-21T09:51:26;14.77;;;9.27;;
16254;SDS011;8235;52.198;9.904;2023-11-21T09:53:55;13.50;;;9.13;;
16254;SDS011;8235;52.198;9.904;2023-11-21T09:56:26;13.97;;;8.50;;
16254;SDS011;8235;52.198;9.904;2023-11-21T09:58:55;14.20;;;8.77;;
16254;SDS011;8235;52.198;9.904;2023-11-21T10:01:22;11.33;;;8.30;;
16254;SDS011;8235;52.198;9.904;2023-11-21T10:03:51;13.50;;;8.07;;
16254;SDS011;8235;52.198;9.904;2023-11-21T10:06:19;12.03;;;8.00;;
16254;SDS011;8235;52.198;9.904;2023-11-21T10:08:46;12.20;;;8.23;;
16254;SDS011;8235;52.198;9.904;2023-11-21T10:11:13;12.10;;;7.70;;
16254;SDS011;8235;52.198;9.904;2023-11-21T10:13:41;9.70;;;7.03;;
16254;SDS011;8235;52.198;9.904;2023-11-21T10:16:10;11.87;;;7.37;;
16254;SDS011;8235;52.198;9.904;2023-11-21T10:18:41;11.10;;;7.60;;
16254;SDS011;8235;52.198;9.904;2023-11-21T10:21:09;10.27;;;6.63;;
16254;SDS011;8235;52.198;9.904;2023-11-21T10:23:38;8.73;;;6.03;;
16254;SDS011;8235;52.198;9.904;2023-11-21T10:26:04;9.73;;;5.83;;
16254;SDS011;8235;52.198;9.904;2023-11-21T10:28:41;9.70;;;6.60;;
16254;SDS011;8235;52.198;9.904;2023-11-21T10:31:07;8.23;;;6.17;;
16254;SDS011;8235;52.198;9.904;2023-11-21T10:33:34;7.97;;;6.10;;
16254;SDS011;8235;52.198;9.904;2023-11-21T10:36:00;9.67;;;5.83;;
16254;SDS011;8235;52.198;9.904;2023-11-21T10:38:27;8.57;;;6.10;;
16254;SDS011;8235;52.198;9.904;2023-11-21T10:40:56;8.27;;;5.83;;
16254;SDS011;8235;52.198;9.904;2023-11-21T10:43:24;8.20;;;6.23;;
16254;SDS011;8235;52.198;9.904;2023-11-21T10:45:51;9.60;;;6.10;;
16254;SDS011;8235;52.198;9.904;2023-11-21T10:48:17;6.73;;;5.90;;
16254;SDS011;8235;52.198;9.904;2023-11-21T10:50:45;7.40;;;5.50;;
16254;SDS011;8235;52.198;9.904;2023-11-21T10:53:12;7.20;;;5.53;;
16254;SDS011;8235;52.198;9.904;2023-11-21T10:55:38;7.63;;;5.30;;
16254;SDS011;8235;52.198;9.904;2023-11-21T10:58:07;8.17;;;5.33;;
16254;SDS011;8235;52.198;9.904;2023-11-21T11:00:35;6.80;;;5.17;;
16254;SDS011;8235;52.198;9.904;2023-11-21T11:03:05;7.63;;;5.20;;
16254;SDS011;8235;52.198;9.904;2023-11-21T11:05:38;6.50;;;5.20;;
16254;SDS011;8235;52.198;9.904;2023-11-21T11:08:07;8.70;;;5.60;;
16254;SDS011;8235;52.198;9.904;2023-11-21T11:10:36;6.63;;;5.67;;
16254;SDS011;8235;52.198;9.904;2023-11-21T11:13:03;6.57;;;5.37;;
16254;SDS011;8235;52.198;9.904;2023-11-21T11:15:34;6.00;;;5.03;;
16254;SDS011;8235;52.198;9.904;2023-11-21T11:18:01;7.13;;;5.33;;
16254;SDS011;8235;52.198;9.904;2023-11-21T11:20:30;7.00;;;5.33;;
16254;SDS011;8235;52.198;9.904;2023-11-21T11:23:07;6.33;;;4.80;;
16254;SDS011;8235;52.198;9.904;2023-11-21T11:25:51;6.20;;;5.43;;
16254;SDS011;8235;52.198;9.904;2023-11-21T11:28:29;7.70;;;5.17;;
16254;SDS011;8235;52.198;9.904;2023-11-21T11:31:10;5.30;;;4.20;;
16254;SDS011;8235;52.198;9.904;2023-11-21T11:33:45;7.47;;;4.67;;
16254;SDS011;8235;52.198;9.904;2023-11-21T11:36:17;5.87;;;4.70;;
16254;SDS011;8235;52.198;9.904;2023-11-21T11:38:51;5.73;;;4.70;;
16254;SDS011;8235;52.198;9.904;2023-11-21T11:41:24;5.67;;;4.83;;
16254;SDS011;8235;52.198;9.904;2023-11-21T11:43:51;5.57;;;4.47;;
16254;SDS011;8235;52.198;9.904;2023-11-21T11:46:19;5.50;;;4.37;;
16254;SDS011;8235;52.198;9.904;2023-11-21T11:48:47;6.87;;;5.40;;
16254;SDS011;8235;52.198;9.904;2023-11-21T11:51:15;6.60;;;5.43;;
16254;SDS011;8235;52.198;9.904;2023-11-21T11:53:44;7.03;;;5.03;;
16254;SDS011;8235;52.198;9.904;2023-11-21T11:56:27;6.77;;;4.90;;
16254;SDS011;8235;52.198;9.904;2023-11-21T11:58:55;5.57;;;4.70;;
16254;SDS011;8235;52.198;9.904;2023-11-21T12:01:25;5.50;;;4.90;;
16254;SDS011;8235;52.198;9.904;2023-11-21T12:06:56;7.77;;;5.00;;
16254;SDS011;8235;52.198;9.904;2023-11-21T12:09:25;7.13;;;5.07;;
16254;SDS011;8235;52.198;9.904;2023-11-21T12:11:52;6.83;;;5.50;;
16254;SDS011;8235;52.198;9.904;2023-11-21T12:14:21;7.07;;;5.63;;
16254;SDS011;8235;52.198;9.904;2023-11-21T12:16:50;6.80;;;5.57;;
16254;SDS011;8235;52.198;9.904;2023-11-21T12:19:17;9.97;;;5.00;;
16254;SDS011;8235;52.198;9.904;2023-11-21T12:21:43;7.20;;;5.07;;
16254;SDS011;8235;52.198;9.904;2023-11-21T12:24:10;6.37;;;4.60;;
16254;SDS011;8235;52.198;9.904;2023-11-21T12:26:38;6.13;;;4.97;;
16254;SDS011;8235;52.198;9.904;2023-11-21T12:29:05;6.50;;;5.00;;
16254;SDS011;8235;52.198;9.904;2023-11-21T12:31:32;5.63;;;4.63;;
16254;SDS011;8235;52.198;9.904;2023-11-21T12:34:00;6.10;;;4.30;;
16254;SDS011;8235;52.198;9.904;2023-11-21T12:36:27;6.40;;;4.40;;
16254;SDS011;8235;52.198;9.904;2023-11-21T12:38:55;6.03;;;4.43;;
16254;SDS011;8235;52.198;9.904;2023-11-21T12:41:21;6.03;;;4.33;;
16254;SDS011;8235;52.198;9.904;2023-11-21T12:43:48;6.10;;;5.03;;
16254;SDS011;8235;52.198;9.904;2023-11-21T12:46:15;5.70;;;4.30;;
16254;SDS011;8235;52.198;9.904;2023-11-21T12:48:42;5.37;;;4.20;;
16254;SDS011;8235;52.198;9.904;2023-11-21T12:51:12;5.03;;;3.93;;
16254;SDS011;8235;52.198;9.904;2023-11-21T12:53:39;6.13;;;4.30;;
16254;SDS011;8235;52.198;9.904;2023-11-21T12:56:06;5.17;;;4.27;;
16254;SDS011;8235;52.198;9.904;2023-11-21T12:58:34;5.20;;;4.20;;
16254;SDS011;8235;52.198;9.904;2023-11-21T13:01:01;6.30;;;4.47;;
16254;SDS011;8235;52.198;9.904;2023-11-21T13:03:29;5.73;;;4.20;;
16254;SDS011;8235;52.198;9.904;2023-11-21T13:05:57;5.37;;;4.57;;
16254;SDS011;8235;52.198;9.904;2023-11-21T13:08:27;5.27;;;4.77;;
16254;SDS011;8235;52.198;9.904;2023-11-21T13:10:55;4.90;;;4.10;;
16254;SDS011;8235;52.198;9.904;2023-11-21T13:13:23;6.17;;;4.17;;
16254;SDS011;8235;52.198;9.904;2023-11-21T13:15:50;4.70;;;3.90;;
16254;SDS011;8235;52.198;9.904;2023-11-21T13:18:20;5.33;;;3.90;;
16254;SDS011;8235;52.198;9.904;2023-11-21T13:20:48;5.40;;;4.00;;
16254;SDS011;8235;52.198;9.904;2023-11-21T13:23:15;4.30;;;3.37;;
16254;SDS011;8235;52.198;9.904;2023-11-21T13:25:43;4.63;;;4.00;;
16254;SDS011;8235;52.198;9.904;2023-11-21T13:28:12;5.27;;;4.07;;
16254;SDS011;8235;52.198;9.904;2023-11-21T13:30:40;4.37;;;3.03;;
16254;SDS011;8235;52.198;9.904;2023-11-21T13:33:09;4.43;;;3.50;;
16254;SDS011;8235;52.198;9.904;2023-11-21T13:35:38;4.37;;;3.00;;
16254;SDS011;8235;52.198;9.904;2023-11-21T13:38:07;4.67;;;3.43;;
16254;SDS011;8235;52.198;9.904;2023-11-21T13:40:35;4.80;;;3.63;;
16254;SDS011;8235;52.198;9.904;2023-11-21T13:43:09;4.40;;;3.60;;
16254;SDS011;8235;52.198;9.904;2023-11-21T13:45:35;3.73;;;3.33;;
16254;SDS011;8235;52.198;9.904;2023-11-21T13:48:04;4.57;;;3.50;;
16254;SDS011;8235;52.198;9.904;2023-11-21T13:50:35;4.50;;;3.67;;
16254;SDS011;8235;52.198;9.904;2023-11-21T13:53:02;4.63;;;3.50;;
16254;SDS011;8235;52.198;9.904;2023-11-21T13:55:35;6.40;;;3.90;;
16254;SDS011;8235;52.198;9.904;2023-11-21T13:58:02;5.80;;;3.87;;
16254;SDS011;8235;52.198;9.904;2023-11-21T14:00:35;4.40;;;3.57;;
16254;SDS011;8235;52.198;9.904;2023-11-21T14:03:06;5.47;;;3.93;;
16254;SDS011;8235;52.198;9.904;2023-11-21T14:05:41;7.53;;;5.20;;
16254;SDS011;8235;52.198;9.904;2023-11-21T14:08:08;5.53;;;4.30;;
16254;SDS011;8235;52.198;9.904;2023-11-21T14:10:37;5.80;;;4.47;;
16254;SDS011;8235;52.198;9.904;2023-11-21T14:13:14;7.33;;;4.30;;
16254;SDS011;8235;52.198;9.904;2023-11-21T14:15:43;6.40;;;4.07;;
16254;SDS011;8235;52.198;9.904;2023-11-21T14:18:11;5.43;;;4.20;;
16254;SDS011;8235;52.198;9.904;2023-11-21T14:20:39;4.07;;;3.67;;
16254;SDS011;8235;52.198;9.904;2023-11-21T14:23:07;4.97;;;4.07;;
16254;SDS011;8235;52.198;9.904;2023-11-21T14:25:33;4.07;;;3.50;;
16254;SDS011;8235;52.198;9.904;2023-11-21T14:28:01;3.83;;;3.13;;
16254;SDS011;8235;52.198;9.904;2023-11-21T14:30:31;3.67;;;3.30;;
16254;SDS011;8235;52.198;9.904;2023-11-21T14:33:00;3.87;;;3.00;;
16254;SDS011;8235;52.198;9.904;2023-11-21T14:35:27;4.17;;;3.23;;
16254;SDS011;8235;52.198;9.904;2023-11-21T14:37:55;3.30;;;3.00;;
16254;SDS011;8235;52.198;9.904;2023-11-21T14:40:23;3.37;;;3.00;;
16254;SDS011;8235;52.198;9.904;2023-11-21T14:42:50;3.67;;;3.17;;
16254;SDS011;8235;52.198;9.904;2023-11-21T14:45:18;5.10;;;3.30;;
16254;SDS011;8235;52.198;9.904;2023-11-21T14:47:45;4.97;;;3.73;;
16254;SDS011;8235;52.198;9.904;2023-11-21T14:50:20;3.97;;;3.13;;
16254;SDS011;8235;52.198;9.904;2023-11-21T14:53:08;4.43;;;3.60;;